Arvada, Wyoming
Current Conditions -  °F | °C
As of 9:53 PM on Tuesday 21 Oct 2014 (Local Time) from KBYG Reporting Station
Clear Clear  
Wind Chill: 61°   Ceiling: Unl
Heat Index: 61°   Visibility: 10mi
Dew Point: 32°   Wind: 14mph
Humidity: 34%   Direction: 50°NE
Pressure: 29.86"   Gusts: 23mph
Location:  44.65°N, 106.13°W
Report Text: KBYG 220353Z AUTO 05012G20KT 10SM CLR 16/00 A2986 RMK AO2 SLP056 T01610000
Loading
Personal Weather Stations






























Interactive Weather Map New forecast layout! Learn more

10-Day Weather Forecast

Advertisements
Track Severe Weather on mobile